createdAt,value
2018-02-27T00:00:22.891Z,978.14
2018-02-27T00:01:22.795Z,978.09
2018-02-27T00:02:22.712Z,978.11
2018-02-27T00:03:22.615Z,978.07
2018-02-27T00:04:22.537Z,978.11
2018-02-27T00:05:22.438Z,978.07
2018-02-27T00:06:22.357Z,978.07
2018-02-27T00:07:22.263Z,978.10
2018-02-27T00:08:22.180Z,978.05
2018-02-27T00:09:22.085Z,978.09
2018-02-27T00:10:22.003Z,978.09
2018-02-27T00:11:21.908Z,978.08
2018-02-27T00:12:21.831Z,978.08
2018-02-27T00:13:21.733Z,978.06
2018-02-27T00:14:21.651Z,978.03
2018-02-27T00:15:21.557Z,978.05
2018-02-27T00:16:21.473Z,978.02
2018-02-27T00:17:21.375Z,978.04
2018-02-27T00:18:21.296Z,978.03
2018-02-27T00:19:21.204Z,978.02
2018-02-27T00:20:21.125Z,978.01
2018-02-27T00:21:21.028Z,978.04
2018-02-27T00:22:20.942Z,978.01
2018-02-27T00:23:20.851Z,977.97
2018-02-27T00:24:20.765Z,977.98
2018-02-27T00:25:20.669Z,977.98
2018-02-27T00:26:20.591Z,978.04
2018-02-27T00:27:20.495Z,978.01
2018-02-27T00:28:20.415Z,978.01
2018-02-27T00:29:20.317Z,978.03
2018-02-27T00:30:20.238Z,978.02
2018-02-27T00:31:20.136Z,978.02
2018-02-27T00:32:20.058Z,978.01
2018-02-27T00:33:19.963Z,978.04
2018-02-27T00:34:19.885Z,978.01
2018-02-27T00:35:19.788Z,978.02
2018-02-27T00:36:19.711Z,977.98
2018-02-27T00:37:19.608Z,977.99
2018-02-27T00:38:19.528Z,978.00
2018-02-27T00:39:19.430Z,977.96
2018-02-27T00:40:19.354Z,977.96
2018-02-27T00:41:19.255Z,977.96
2018-02-27T00:42:19.176Z,977.93
2018-02-27T00:43:19.075Z,977.92
2018-02-27T00:44:18.995Z,977.92
2018-02-27T00:45:18.900Z,977.88
2018-02-27T00:46:18.819Z,977.88
2018-02-27T00:47:18.722Z,977.86
2018-02-27T00:48:18.660Z,977.91
2018-02-27T00:49:18.546Z,977.89
2018-02-27T00:50:18.462Z,977.88
2018-02-27T00:51:18.369Z,977.89
2018-02-27T00:52:18.284Z,977.81
2018-02-27T00:53:18.192Z,977.86
2018-02-27T00:54:18.119Z,977.81
2018-02-27T00:55:18.020Z,977.83
2018-02-27T00:56:17.938Z,977.80
2018-02-27T00:57:17.842Z,977.80
2018-02-27T00:58:17.756Z,977.82
2018-02-27T00:59:17.658Z,977.79
2018-02-27T01:00:17.583Z,977.76
2018-02-27T01:01:17.483Z,977.74
2018-02-27T01:02:17.402Z,977.73
2018-02-27T01:03:17.310Z,977.73
2018-02-27T01:04:17.224Z,977.74
2018-02-27T01:05:17.129Z,977.76
2018-02-27T01:06:17.047Z,977.71
2018-02-27T01:07:16.952Z,977.69
2018-02-27T01:08:16.873Z,977.68
2018-02-27T01:09:16.775Z,977.72
2018-02-27T01:10:16.692Z,977.69
2018-02-27T01:11:16.597Z,977.64
2018-02-27T01:12:16.518Z,977.67
2018-02-27T01:13:16.420Z,977.66
2018-02-27T01:14:16.337Z,977.63
2018-02-27T01:15:16.241Z,977.66
2018-02-27T01:16:16.162Z,977.62
2018-02-27T01:17:16.066Z,977.66
2018-02-27T01:18:15.985Z,977.62
2018-02-27T01:19:15.886Z,977.64
2018-02-27T01:20:15.812Z,977.60
2018-02-27T01:21:15.712Z,977.64
2018-02-27T01:22:15.633Z,977.62
2018-02-27T01:23:15.534Z,977.59
2018-02-27T01:24:15.456Z,977.54
2018-02-27T01:25:15.361Z,977.54
2018-02-27T01:26:15.275Z,977.52
2018-02-27T01:27:15.180Z,977.51
2018-02-27T01:28:15.104Z,977.51
2018-02-27T01:29:15.002Z,977.50
2018-02-27T01:30:14.920Z,977.47
2018-02-27T01:31:14.827Z,977.45
2018-02-27T01:32:14.744Z,977.50
2018-02-27T01:33:14.648Z,977.41
2018-02-27T01:34:14.566Z,977.43
2018-02-27T01:35:14.472Z,977.43
2018-02-27T01:36:14.390Z,977.39
2018-02-27T01:37:14.290Z,977.36
2018-02-27T01:38:14.214Z,977.34
2018-02-27T01:39:14.115Z,977.31
2018-02-27T01:40:14.034Z,977.35
2018-02-27T01:41:13.939Z,977.39
2018-02-27T01:42:13.860Z,977.34
2018-02-27T01:43:13.758Z,977.32
2018-02-27T01:44:13.684Z,977.33
2018-02-27T01:45:13.585Z,977.35
2018-02-27T01:46:13.501Z,977.30
2018-02-27T01:47:13.405Z,977.31
2018-02-27T01:48:13.329Z,977.31
2018-02-27T01:49:13.231Z,977.33
2018-02-27T01:50:13.147Z,977.30
2018-02-27T01:51:13.052Z,977.27
2018-02-27T01:52:12.972Z,977.24
2018-02-27T01:53:12.873Z,977.28
2018-02-27T01:54:12.796Z,977.27
2018-02-27T01:55:12.703Z,977.24
2018-02-27T01:56:12.616Z,977.25
2018-02-27T01:57:12.522Z,977.23
2018-02-27T01:58:12.443Z,977.21
2018-02-27T01:59:12.344Z,977.21
2018-02-27T02:00:12.263Z,977.19
2018-02-27T02:01:12.168Z,977.19
2018-02-27T02:02:12.082Z,977.19
2018-02-27T02:03:11.989Z,977.16
2018-02-27T02:04:11.912Z,977.15
2018-02-27T02:05:11.814Z,977.16
2018-02-27T02:06:11.732Z,977.15
2018-02-27T02:07:11.636Z,977.11
2018-02-27T02:08:11.557Z,977.12
2018-02-27T02:09:11.459Z,977.13
2018-02-27T02:10:11.381Z,977.13
2018-02-27T02:11:11.285Z,977.13
2018-02-27T02:12:11.203Z,977.11
2018-02-27T02:13:11.105Z,977.08
2018-02-27T02:14:11.027Z,977.04
2018-02-27T02:15:10.923Z,977.05
2018-02-27T02:16:10.848Z,977.04
2018-02-27T02:17:10.756Z,977.03
2018-02-27T02:18:10.671Z,977.04
2018-02-27T02:19:10.573Z,977.05
2018-02-27T02:20:10.491Z,977.04
2018-02-27T02:21:10.397Z,977.00
2018-02-27T02:22:10.314Z,977.03
2018-02-27T02:23:10.216Z,976.92
2018-02-27T02:24:10.136Z,976.98
2018-02-27T02:25:10.041Z,976.99
2018-02-27T02:26:09.960Z,976.95
2018-02-27T02:27:09.865Z,977.01
2018-02-27T02:28:09.783Z,976.96
2018-02-27T02:29:09.686Z,976.96
2018-02-27T02:30:09.603Z,976.96
2018-02-27T02:31:09.507Z,976.95
2018-02-27T02:32:09.433Z,976.95
2018-02-27T02:33:09.335Z,976.98
2018-02-27T02:34:09.252Z,976.93
2018-02-27T02:35:09.157Z,976.93
2018-02-27T02:36:09.076Z,976.87
2018-02-27T02:37:08.986Z,976.90
2018-02-27T02:38:08.895Z,976.91
2018-02-27T02:39:08.800Z,976.92
2018-02-27T02:40:08.723Z,976.93
2018-02-27T02:41:08.625Z,976.91
2018-02-27T02:42:08.541Z,976.90
2018-02-27T02:43:08.450Z,976.91
2018-02-27T02:44:08.361Z,976.93
2018-02-27T02:45:08.268Z,976.94
2018-02-27T02:46:08.194Z,976.90
2018-02-27T02:47:08.092Z,976.91
2018-02-27T02:48:08.010Z,976.89
2018-02-27T02:49:07.916Z,976.89
2018-02-27T02:50:07.833Z,976.88
2018-02-27T02:51:07.737Z,976.84
2018-02-27T02:52:07.656Z,976.85
2018-02-27T02:53:07.560Z,976.87
2018-02-27T02:54:07.479Z,976.87
2018-02-27T02:55:07.387Z,976.89
2018-02-27T02:56:07.299Z,976.87
2018-02-27T02:57:07.207Z,976.88
2018-02-27T02:58:07.122Z,976.88
2018-02-27T02:59:07.028Z,976.92
2018-02-27T03:00:06.950Z,976.93
2018-02-27T03:01:06.848Z,976.92
2018-02-27T03:02:06.769Z,976.94
2018-02-27T03:03:06.673Z,976.93
2018-02-27T03:04:06.591Z,976.92
2018-02-27T03:05:06.499Z,976.91
2018-02-27T03:06:06.412Z,976.91
2018-02-27T03:07:06.319Z,976.90
2018-02-27T03:08:06.236Z,976.91
2018-02-27T03:09:06.146Z,976.89
2018-02-27T03:10:06.060Z,976.89
2018-02-27T03:11:05.968Z,976.91
2018-02-27T03:12:05.883Z,976.86
2018-02-27T03:13:05.793Z,976.86
2018-02-27T03:14:05.709Z,976.87
2018-02-27T03:15:05.612Z,976.89
2018-02-27T03:16:05.532Z,976.87
2018-02-27T03:17:05.434Z,976.83
2018-02-27T03:18:05.349Z,976.76
2018-02-27T03:19:05.254Z,976.84
2018-02-27T03:20:05.176Z,976.79
2018-02-27T03:21:05.078Z,976.80
2018-02-27T03:22:04.995Z,976.76
2018-02-27T03:23:04.896Z,976.75
2018-02-27T03:24:04.817Z,976.77
2018-02-27T03:25:04.722Z,976.76
2018-02-27T03:26:04.641Z,976.76
2018-02-27T03:27:04.542Z,976.74
2018-02-27T03:28:04.462Z,976.75
2018-02-27T03:29:04.370Z,976.73
2018-02-27T03:30:04.294Z,976.69
2018-02-27T03:31:04.189Z,976.69
2018-02-27T03:32:04.107Z,976.70
2018-02-27T03:33:04.015Z,976.69
2018-02-27T03:34:03.933Z,976.66
2018-02-27T03:35:03.832Z,976.69
2018-02-27T03:36:03.753Z,976.72
2018-02-27T03:37:03.656Z,976.67
2018-02-27T03:38:03.573Z,976.68
2018-02-27T03:39:03.479Z,976.68
2018-02-27T03:40:03.402Z,976.67
2018-02-27T03:41:03.296Z,976.67
2018-02-27T03:42:03.215Z,976.67
2018-02-27T03:43:03.123Z,976.69
2018-02-27T03:44:03.042Z,976.69
2018-02-27T03:45:02.947Z,976.63
2018-02-27T03:46:02.866Z,976.61
2018-02-27T03:47:02.768Z,976.61
2018-02-27T03:48:02.688Z,976.57
2018-02-27T03:49:02.592Z,976.58
2018-02-27T03:50:02.516Z,976.57
2018-02-27T03:51:02.414Z,976.57
2018-02-27T03:52:02.335Z,976.55
2018-02-27T03:53:02.239Z,976.55
2018-02-27T03:54:02.156Z,976.52
2018-02-27T03:55:02.059Z,976.56
2018-02-27T03:56:01.977Z,976.55
2018-02-27T03:57:01.879Z,976.55
2018-02-27T03:58:01.799Z,976.53
2018-02-27T03:59:01.701Z,976.54
2018-02-27T04:00:01.620Z,976.54
2018-02-27T04:01:01.524Z,976.53
2018-02-27T04:02:01.449Z,976.53
2018-02-27T04:03:01.346Z,976.51
2018-02-27T04:04:01.267Z,976.51
2018-02-27T04:05:01.171Z,976.53
2018-02-27T04:06:01.088Z,976.52
2018-02-27T04:07:00.990Z,976.53
2018-02-27T04:08:00.909Z,976.49
2018-02-27T04:09:00.812Z,976.49
2018-02-27T04:10:00.728Z,976.48
2018-02-27T04:11:00.634Z,976.47
2018-02-27T04:12:00.555Z,976.45
2018-02-27T04:13:00.457Z,976.47
2018-02-27T04:14:00.374Z,976.46
2018-02-27T04:15:00.281Z,976.46
2018-02-27T04:16:00.199Z,976.44
2018-02-27T04:17:00.100Z,976.41
2018-02-27T04:18:00.021Z,976.44
2018-02-27T04:18:59.926Z,976.44
2018-02-27T04:19:59.850Z,976.46
2018-02-27T04:20:59.751Z,976.50
2018-02-27T04:21:59.671Z,976.50
2018-02-27T04:22:59.570Z,976.49
2018-02-27T04:23:59.484Z,976.50
2018-02-27T04:24:59.390Z,976.49
2018-02-27T04:25:59.318Z,976.52
2018-02-27T04:26:59.214Z,976.50
2018-02-27T04:27:59.133Z,976.51
2018-02-27T04:28:59.035Z,976.51
2018-02-27T04:29:58.953Z,976.50
2018-02-27T04:30:58.854Z,976.53
2018-02-27T04:31:58.781Z,976.50
2018-02-27T04:32:58.681Z,976.53
2018-02-27T04:33:58.598Z,976.58
2018-02-27T04:34:58.502Z,976.60
2018-02-27T04:35:58.423Z,976.58
2018-02-27T04:36:58.323Z,976.57
2018-02-27T04:37:58.241Z,976.57
2018-02-27T04:38:58.146Z,976.58
2018-02-27T04:39:58.098Z,976.64
2018-02-27T04:40:57.967Z,976.58
2018-02-27T04:41:57.893Z,976.55
2018-02-27T04:42:57.789Z,976.52
2018-02-27T04:43:57.710Z,976.59
2018-02-27T04:44:57.611Z,976.57
2018-02-27T04:45:57.530Z,976.55
2018-02-27T04:46:57.434Z,976.55
2018-02-27T04:47:57.354Z,976.51
2018-02-27T04:48:57.258Z,976.54
2018-02-27T04:49:57.175Z,976.51
2018-02-27T04:50:57.078Z,976.52
2018-02-27T04:51:56.995Z,976.53
2018-02-27T04:52:56.902Z,976.54
2018-02-27T04:53:56.816Z,976.56
2018-02-27T04:54:56.721Z,976.53
2018-02-27T04:55:56.641Z,976.50
2018-02-27T04:56:56.548Z,976.47
2018-02-27T04:57:56.459Z,976.52
2018-02-27T04:58:56.368Z,976.51
2018-02-27T04:59:56.284Z,976.52
2018-02-27T05:00:56.198Z,976.48
2018-02-27T05:01:56.174Z,976.48
2018-02-27T05:02:56.010Z,976.47
2018-02-27T05:03:55.980Z,976.47
2018-02-27T05:04:55.832Z,976.44
2018-02-27T05:05:55.788Z,976.46
2018-02-27T05:06:55.652Z,976.48
2018-02-27T05:07:55.596Z,976.49
2018-02-27T05:08:55.473Z,976.45
2018-02-27T05:09:55.404Z,976.44
2018-02-27T05:10:55.298Z,976.46
2018-02-27T05:11:55.313Z,976.42
2018-02-27T05:12:55.123Z,976.44
2018-02-27T05:13:55.123Z,976.41
2018-02-27T05:14:54.942Z,976.38
2018-02-27T05:15:54.933Z,976.38
2018-02-27T05:16:54.764Z,976.37
2018-02-27T05:17:54.740Z,976.36
2018-02-27T05:18:54.585Z,976.36
2018-02-27T05:19:54.546Z,976.38
2018-02-27T05:20:54.409Z,976.33
2018-02-27T05:21:54.357Z,976.33
2018-02-27T05:22:54.227Z,976.30
2018-02-27T05:23:54.168Z,976.33
2018-02-27T05:24:54.050Z,976.31
2018-02-27T05:25:54.080Z,976.34
2018-02-27T05:26:53.872Z,976.35
2018-02-27T05:27:53.884Z,976.34
2018-02-27T05:28:53.697Z,976.35
2018-02-27T05:29:53.692Z,976.36
2018-02-27T05:30:53.515Z,976.35
2018-02-27T05:31:53.501Z,976.35
2018-02-27T05:32:53.339Z,976.38
2018-02-27T05:33:53.309Z,976.37
2018-02-27T05:34:53.158Z,976.39
2018-02-27T05:35:53.111Z,976.36
2018-02-27T05:36:52.981Z,976.38
2018-02-27T05:37:52.927Z,976.40
2018-02-27T05:38:52.802Z,976.38
2018-02-27T05:39:52.736Z,976.41
2018-02-27T05:40:52.625Z,976.38
2018-02-27T05:41:52.582Z,976.40
2018-02-27T05:42:52.444Z,976.41
2018-02-27T05:43:52.453Z,976.42
2018-02-27T05:44:52.270Z,976.43
2018-02-27T05:45:52.185Z,976.42
2018-02-27T05:46:52.088Z,976.45
2018-02-27T05:47:52.007Z,976.42
2018-02-27T05:48:51.913Z,976.45
2018-02-27T05:49:51.878Z,976.43
2018-02-27T05:50:51.728Z,976.46
2018-02-27T05:51:51.648Z,976.48
2018-02-27T05:52:51.552Z,976.46
2018-02-27T05:53:51.494Z,976.48
2018-02-27T05:54:51.376Z,976.43
2018-02-27T05:55:51.406Z,976.48
2018-02-27T05:56:51.200Z,976.43
2018-02-27T05:57:51.116Z,976.47
2018-02-27T05:58:51.016Z,976.47
2018-02-27T05:59:50.989Z,976.45
2018-02-27T06:00:50.840Z,976.45
2018-02-27T06:01:50.829Z,976.49
2018-02-27T06:02:50.662Z,976.49
2018-02-27T06:03:50.581Z,976.49
2018-02-27T06:04:50.484Z,976.47
2018-02-27T06:05:50.404Z,976.48
2018-02-27T06:06:50.305Z,976.47
2018-02-27T06:07:50.276Z,976.46
2018-02-27T06:08:50.129Z,976.52
2018-02-27T06:09:50.047Z,976.48
2018-02-27T06:10:49.952Z,976.49
2018-02-27T06:11:49.870Z,976.53
2018-02-27T06:12:49.770Z,976.51
2018-02-27T06:13:49.689Z,976.48
2018-02-27T06:14:49.592Z,976.52
2018-02-27T06:15:49.513Z,976.51
2018-02-27T06:16:49.427Z,976.51
2018-02-27T06:17:49.329Z,976.49
2018-02-27T06:18:49.236Z,976.50
2018-02-27T06:19:49.154Z,976.52
2018-02-27T06:20:49.054Z,976.48
2018-02-27T06:21:48.978Z,976.46
2018-02-27T06:22:48.942Z,976.51
2018-02-27T06:23:48.795Z,976.51
2018-02-27T06:24:48.702Z,976.52
2018-02-27T06:25:48.616Z,976.51
2018-02-27T06:26:48.519Z,976.47
2018-02-27T06:27:48.438Z,976.49
2018-02-27T06:28:48.345Z,976.49
2018-02-27T06:29:48.259Z,976.51
2018-02-27T06:30:48.163Z,976.49
2018-02-27T06:31:48.081Z,976.50
2018-02-27T06:32:47.986Z,976.50
2018-02-27T06:33:47.905Z,976.45
2018-02-27T06:34:47.811Z,976.43
2018-02-27T06:35:47.731Z,976.41
2018-02-27T06:36:47.632Z,976.39
2018-02-27T06:37:47.552Z,976.39
2018-02-27T06:38:47.450Z,976.41
2018-02-27T06:39:47.367Z,976.37
2018-02-27T06:40:47.277Z,976.41
2018-02-27T06:41:47.190Z,976.41
2018-02-27T06:42:47.093Z,976.41
2018-02-27T06:43:47.015Z,976.40
2018-02-27T06:44:46.914Z,976.39
2018-02-27T06:45:46.830Z,976.39
2018-02-27T06:46:46.737Z,976.40
2018-02-27T06:47:46.657Z,976.34
2018-02-27T06:48:46.557Z,976.39
2018-02-27T06:49:46.479Z,976.37
2018-02-27T06:50:46.378Z,976.38
2018-02-27T06:51:46.301Z,976.40
2018-02-27T06:52:46.204Z,976.40
2018-02-27T06:53:46.119Z,976.46
2018-02-27T06:54:46.022Z,976.42
2018-02-27T06:55:45.941Z,976.41
2018-02-27T06:56:45.844Z,976.41
2018-02-27T06:57:45.768Z,976.39
2018-02-27T06:58:45.667Z,976.42
2018-02-27T06:59:45.590Z,976.43
2018-02-27T07:00:45.487Z,976.45
2018-02-27T07:01:45.409Z,976.45
2018-02-27T07:02:45.311Z,976.43
2018-02-27T07:03:45.229Z,976.41
2018-02-27T07:04:45.133Z,976.40
2018-02-27T07:05:45.056Z,976.39
2018-02-27T07:06:44.961Z,976.35
2018-02-27T07:07:44.909Z,976.35
2018-02-27T07:08:44.775Z,976.40
2018-02-27T07:09:44.718Z,976.40
2018-02-27T07:10:44.594Z,976.39
2018-02-27T07:11:44.527Z,976.42
2018-02-27T07:12:44.419Z,976.45
2018-02-27T07:13:44.335Z,976.45
2018-02-27T07:14:44.241Z,976.44
2018-02-27T07:15:46.192Z,976.41
2018-02-27T07:16:44.062Z,976.42
2018-02-27T07:17:44.052Z,976.43
2018-02-27T07:18:43.885Z,976.43
2018-02-27T07:19:43.803Z,976.43
2018-02-27T07:20:43.706Z,976.40
2018-02-27T07:21:43.669Z,976.40
2018-02-27T07:22:43.533Z,976.42
2018-02-27T07:23:43.479Z,976.41
2018-02-27T07:24:43.402Z,976.44
2018-02-27T07:25:43.285Z,976.44
2018-02-27T07:26:43.173Z,976.46
2018-02-27T07:27:43.196Z,976.41
2018-02-27T07:28:42.997Z,976.46
2018-02-27T07:29:43.007Z,976.47
2018-02-27T07:30:42.818Z,976.47
2018-02-27T07:31:42.812Z,976.48
2018-02-27T07:32:42.642Z,976.47
2018-02-27T07:33:42.624Z,976.48
2018-02-27T07:34:42.465Z,976.45
2018-02-27T07:35:42.431Z,976.49
2018-02-27T07:36:42.286Z,976.43
2018-02-27T07:37:42.237Z,976.42
2018-02-27T07:38:42.106Z,976.44
2018-02-27T07:39:42.045Z,976.40
2018-02-27T07:40:41.929Z,976.46
2018-02-27T07:41:41.958Z,976.39
2018-02-27T07:42:41.751Z,976.40
2018-02-27T07:43:41.766Z,976.40
2018-02-27T07:44:41.574Z,976.44
2018-02-27T07:45:41.571Z,976.42
2018-02-27T07:46:41.398Z,976.46
2018-02-27T07:47:41.379Z,976.44
2018-02-27T07:48:41.218Z,976.41
2018-02-27T07:49:41.192Z,976.38
2018-02-27T07:50:41.039Z,976.40
2018-02-27T07:51:40.991Z,976.41
2018-02-27T07:52:40.862Z,976.41
2018-02-27T07:53:40.805Z,976.39
2018-02-27T07:54:40.683Z,976.39
2018-02-27T07:55:40.712Z,976.44
2018-02-27T07:56:40.513Z,976.40
2018-02-27T07:57:40.522Z,976.40
2018-02-27T07:58:40.331Z,976.42
2018-02-27T07:59:40.330Z,976.41
2018-02-27T08:00:40.157Z,976.38
2018-02-27T08:01:40.139Z,976.41
2018-02-27T08:02:39.978Z,976.37
2018-02-27T08:03:39.946Z,976.40
2018-02-27T08:04:39.804Z,976.41
2018-02-27T08:05:39.757Z,976.40
2018-02-27T08:06:39.623Z,976.40
2018-02-27T08:07:39.566Z,976.36
2018-02-27T08:08:39.449Z,976.36
2018-02-27T08:09:39.372Z,976.34
2018-02-27T08:10:39.270Z,976.39
2018-02-27T08:11:39.283Z,976.35
2018-02-27T08:12:39.098Z,976.37
2018-02-27T08:13:39.086Z,976.37
2018-02-27T08:14:38.919Z,976.36
2018-02-27T08:15:38.903Z,976.36
2018-02-27T08:16:38.747Z,976.31
2018-02-27T08:17:38.707Z,976.34
2018-02-27T08:18:38.568Z,976.31
2018-02-27T08:19:38.512Z,976.34
2018-02-27T08:20:38.388Z,976.32
2018-02-27T08:21:38.321Z,976.26
2018-02-27T08:22:38.215Z,976.31
2018-02-27T08:23:38.236Z,976.25
2018-02-27T08:24:38.042Z,976.23
2018-02-27T08:25:38.045Z,976.29
2018-02-27T08:26:37.873Z,976.29
2018-02-27T08:27:37.851Z,976.30
2018-02-27T08:28:37.728Z,976.30
2018-02-27T08:29:37.657Z,976.35
2018-02-27T08:30:37.519Z,976.35
2018-02-27T08:31:37.471Z,976.35
2018-02-27T08:32:37.344Z,976.37
2018-02-27T08:33:37.273Z,976.29
2018-02-27T08:34:37.169Z,976.33
2018-02-27T08:35:37.188Z,976.33
2018-02-27T08:36:36.996Z,976.28
2018-02-27T08:37:37.008Z,976.32
2018-02-27T08:38:36.820Z,976.26
2018-02-27T08:39:36.805Z,976.26
2018-02-27T08:40:36.642Z,976.29
2018-02-27T08:41:36.565Z,976.32
2018-02-27T08:42:36.474Z,976.27
2018-02-27T08:43:36.418Z,976.30
2018-02-27T08:44:36.295Z,976.32
2018-02-27T08:45:36.217Z,976.32
2018-02-27T08:46:36.122Z,976.38
2018-02-27T08:47:36.141Z,976.34
2018-02-27T08:48:35.946Z,976.38
2018-02-27T08:49:35.945Z,976.40
2018-02-27T08:50:35.772Z,976.39
2018-02-27T08:51:35.753Z,976.36
2018-02-27T08:52:35.601Z,976.32
2018-02-27T08:53:35.564Z,976.36
2018-02-27T08:54:35.424Z,976.38
2018-02-27T08:55:35.368Z,976.37
2018-02-27T08:56:35.249Z,976.37
2018-02-27T08:57:35.177Z,976.43
2018-02-27T08:58:35.076Z,976.39
2018-02-27T08:59:35.092Z,976.39
2018-02-27T09:00:34.902Z,976.35
2018-02-27T09:01:34.896Z,976.35
2018-02-27T09:02:34.725Z,976.32
2018-02-27T09:03:34.702Z,976.37
2018-02-27T09:04:34.551Z,976.37
2018-02-27T09:05:34.513Z,976.36
2018-02-27T09:06:34.378Z,976.35
2018-02-27T09:07:34.322Z,976.38
2018-02-27T09:08:34.201Z,976.39
2018-02-27T09:09:34.125Z,976.38
2018-02-27T09:10:34.030Z,976.38
2018-02-27T09:11:34.042Z,976.39
2018-02-27T09:12:33.858Z,976.39
2018-02-27T09:13:33.851Z,976.37
2018-02-27T09:14:33.681Z,976.37
2018-02-27T09:15:33.601Z,976.37
2018-02-27T09:16:33.506Z,976.37
2018-02-27T09:17:33.471Z,976.34
2018-02-27T09:18:33.333Z,976.33
2018-02-27T09:19:33.275Z,976.35
2018-02-27T09:20:33.162Z,976.34
2018-02-27T09:21:33.190Z,976.33
2018-02-27T09:22:32.986Z,976.32
2018-02-27T09:23:32.996Z,976.35
2018-02-27T09:24:32.812Z,976.32
2018-02-27T09:25:32.844Z,976.39
2018-02-27T09:26:32.639Z,976.33
2018-02-27T09:27:32.610Z,976.36
2018-02-27T09:28:32.467Z,976.31
2018-02-27T09:29:32.418Z,976.32
2018-02-27T09:30:32.292Z,976.32
2018-02-27T09:31:32.231Z,976.31
2018-02-27T09:32:32.121Z,976.38
2018-02-27T09:33:32.187Z,976.33
2018-02-27T09:34:31.954Z,976.32
2018-02-27T09:35:31.946Z,976.32
2018-02-27T09:36:31.774Z,976.31
2018-02-27T09:37:31.696Z,976.33
2018-02-27T09:38:31.660Z,976.33
2018-02-27T09:39:31.565Z,976.31
2018-02-27T09:40:31.432Z,976.29
2018-02-27T09:41:31.370Z,976.27
2018-02-27T09:42:31.253Z,976.27
2018-02-27T09:43:31.282Z,976.27
2018-02-27T09:44:31.090Z,976.25
2018-02-27T09:45:31.089Z,976.27
2018-02-27T09:46:30.912Z,976.26
2018-02-27T09:47:30.903Z,976.25
2018-02-27T09:48:30.743Z,976.23
2018-02-27T09:49:30.702Z,976.22
2018-02-27T09:50:30.571Z,976.20
2018-02-27T09:51:30.512Z,976.19
2018-02-27T09:52:30.399Z,976.17
2018-02-27T09:53:30.425Z,976.17
2018-02-27T09:54:30.229Z,976.20
2018-02-27T09:55:30.241Z,976.19
2018-02-27T09:56:30.055Z,976.18
2018-02-27T09:57:30.045Z,976.22
2018-02-27T09:58:29.884Z,976.24
2018-02-27T09:59:29.847Z,976.20
2018-02-27T10:00:29.714Z,976.21
2018-02-27T10:01:29.659Z,976.20
2018-02-27T10:02:29.542Z,976.19
2018-02-27T10:03:29.568Z,976.24
2018-02-27T10:04:29.371Z,976.21
2018-02-27T10:05:29.301Z,976.17
2018-02-27T10:06:29.198Z,976.15
2018-02-27T10:07:29.180Z,976.16
2018-02-27T10:08:29.032Z,976.19
2018-02-27T10:09:28.994Z,976.18
2018-02-27T10:10:28.859Z,976.21
2018-02-27T10:11:28.801Z,976.20
2018-02-27T10:12:28.690Z,976.13
2018-02-27T10:13:28.712Z,976.09
2018-02-27T10:14:28.519Z,976.13
2018-02-27T10:15:28.520Z,976.13
2018-02-27T10:16:28.348Z,976.19
2018-02-27T10:17:28.329Z,976.16
2018-02-27T10:18:28.178Z,976.21
2018-02-27T10:19:28.136Z,976.21
2018-02-27T10:20:28.008Z,976.20
2018-02-27T10:21:27.932Z,976.13
2018-02-27T10:22:27.841Z,976.23
2018-02-27T10:23:27.856Z,976.21
2018-02-27T10:24:27.670Z,976.21
2018-02-27T10:25:27.666Z,976.21
2018-02-27T10:26:27.498Z,976.18
2018-02-27T10:27:27.509Z,976.24
2018-02-27T10:28:27.333Z,976.29
2018-02-27T10:29:27.280Z,976.23
2018-02-27T10:30:27.160Z,976.17
2018-02-27T10:31:27.191Z,976.23
2018-02-27T10:32:26.994Z,976.22
2018-02-27T10:33:26.999Z,976.20
2018-02-27T10:34:26.829Z,976.20
2018-02-27T10:35:26.806Z,976.15
2018-02-27T10:36:26.660Z,976.16
2018-02-27T10:37:26.620Z,976.15
2018-02-27T10:38:26.488Z,976.15
2018-02-27T10:39:26.453Z,976.12
2018-02-27T10:40:26.321Z,976.15
2018-02-27T10:41:26.335Z,976.14
2018-02-27T10:42:26.148Z,976.10
2018-02-27T10:43:26.142Z,976.11
2018-02-27T10:44:25.978Z,976.07
2018-02-27T10:45:25.951Z,976.05
2018-02-27T10:46:25.822Z,976.05
2018-02-27T10:47:25.768Z,976.04
2018-02-27T10:48:25.644Z,976.05
2018-02-27T10:49:25.670Z,976.01
2018-02-27T10:50:25.475Z,976.00
2018-02-27T10:51:25.482Z,975.98
2018-02-27T10:52:25.313Z,976.02
2018-02-27T10:53:25.289Z,976.08
2018-02-27T10:54:25.137Z,976.02
2018-02-27T10:55:25.102Z,976.03
2018-02-27T10:56:24.976Z,976.02
2018-02-27T10:57:24.904Z,975.99
2018-02-27T10:58:24.802Z,975.95
2018-02-27T10:59:24.813Z,975.99
2018-02-27T11:00:24.636Z,975.93
2018-02-27T11:01:24.622Z,975.91
2018-02-27T11:02:24.470Z,975.89
2018-02-27T11:03:24.430Z,975.92
2018-02-27T11:04:24.293Z,975.89
2018-02-27T11:05:24.241Z,975.85
2018-02-27T11:06:24.127Z,975.86
2018-02-27T11:07:24.226Z,975.82
2018-02-27T11:08:23.961Z,975.86
2018-02-27T11:09:23.958Z,975.88
2018-02-27T11:10:23.787Z,975.84
2018-02-27T11:11:23.771Z,975.85
2018-02-27T11:12:23.625Z,975.82
2018-02-27T11:13:23.576Z,975.79
2018-02-27T11:14:23.454Z,975.80
2018-02-27T11:15:23.487Z,975.77
2018-02-27T11:16:23.287Z,975.83
2018-02-27T11:17:23.294Z,975.81
2018-02-27T11:18:23.118Z,975.85
2018-02-27T11:19:23.103Z,975.84
2018-02-27T11:20:22.950Z,975.82
2018-02-27T11:21:22.917Z,975.79
2018-02-27T11:22:22.780Z,975.80
2018-02-27T11:23:22.723Z,975.76
2018-02-27T11:24:22.614Z,975.77
2018-02-27T11:25:22.629Z,975.74
2018-02-27T11:26:22.445Z,975.75
2018-02-27T11:27:22.436Z,975.71
2018-02-27T11:28:22.279Z,975.68
2018-02-27T11:29:22.246Z,975.73
2018-02-27T11:30:22.109Z,975.72
2018-02-27T11:31:22.032Z,975.71
2018-02-27T11:32:21.945Z,975.75
2018-02-27T11:33:21.863Z,975.75
2018-02-27T11:34:21.783Z,975.75
2018-02-27T11:35:21.696Z,975.74
2018-02-27T11:36:21.641Z,975.73
2018-02-27T11:37:21.529Z,975.69
2018-02-27T11:38:21.434Z,975.73
2018-02-27T11:39:21.357Z,975.70
2018-02-27T11:40:21.268Z,975.72
2018-02-27T11:41:21.192Z,975.72
2018-02-27T11:42:21.102Z,975.66
2018-02-27T11:43:21.027Z,975.68
2018-02-27T11:44:20.933Z,975.73
2018-02-27T11:45:20.858Z,975.71
2018-02-27T11:46:20.764Z,975.69
2018-02-27T11:47:20.690Z,975.64
2018-02-27T11:48:20.596Z,975.61
2018-02-27T11:49:20.558Z,975.64
2018-02-27T11:50:20.432Z,975.62
2018-02-27T11:51:20.355Z,975.59
2018-02-27T11:52:20.262Z,975.64
2018-02-27T11:53:20.184Z,975.64
2018-02-27T11:54:20.097Z,975.65
2018-02-27T11:55:20.022Z,975.69
2018-02-27T11:56:19.926Z,975.64
2018-02-27T11:57:19.846Z,975.65
2018-02-27T11:58:19.758Z,975.64
2018-02-27T11:59:19.683Z,975.65
2018-02-27T12:00:19.596Z,975.66
2018-02-27T12:01:19.516Z,975.65
2018-02-27T12:02:19.433Z,975.64
2018-02-27T12:03:19.346Z,975.63
2018-02-27T12:04:19.265Z,975.60
2018-02-27T12:05:19.178Z,975.60
2018-02-27T12:06:19.084Z,975.62
2018-02-27T12:07:19.017Z,975.61
2018-02-27T12:08:18.922Z,975.54
2018-02-27T12:09:18.846Z,975.54
2018-02-27T12:10:18.755Z,975.51
2018-02-27T12:11:18.675Z,975.51
2018-02-27T12:12:18.598Z,975.55
2018-02-27T12:13:18.509Z,975.55
2018-02-27T12:14:18.417Z,975.48
2018-02-27T12:15:18.344Z,975.54
2018-02-27T12:16:18.253Z,975.51
2018-02-27T12:17:18.184Z,975.52
2018-02-27T12:18:18.086Z,975.52
2018-02-27T12:19:18.009Z,975.50
2018-02-27T12:20:17.922Z,975.48
2018-02-27T12:21:17.845Z,975.47
2018-02-27T12:22:17.750Z,975.50
2018-02-27T12:23:17.677Z,975.49
2018-02-27T12:24:17.583Z,975.46
2018-02-27T12:25:17.507Z,975.48
2018-02-27T12:26:17.430Z,975.43
2018-02-27T12:27:17.341Z,975.44